Terminal Aerodrome Forecast
Issued by NWS

Home | Current Version | Previous Version | Text Only | Print | Product List | Glossary On
Versions: 1 2 3 4 5 6 7 8 9 10 11 12 13 14
405
FTUS45 KTFX 201133
TAFLWT
TAF
KLWT 201133Z 2012/2112 VRB05KT P6SM VCSH OVC100
     FM201900 VRB05KT P6SM SCT080 BKN120
     FM210500 VRB05KT P6SM SCT150=

USA.gov is the U.S. government's official web portal to all federal, state and local government web resources and services.